Terminal Aerodrome Forecast
Issued by NWS

Current Version | Previous Version | Text Only | Print | Product List | Glossary Off
Versions: 1 2 3 4 5 6 7 8 9 10 11 12 13 14 15 16 17 18

000
FTUS41 KPBZ 200400 AAB
TAFMGW
TAF AMD
KMGW 200429Z 2004/2024 17005KT P6SM -SHRA OVC040
     FM200800 VRB03KT 3SM BR BKN040
     FM201400 19005KT P6SM BKN035=

USA.gov is the U.S. government's official web portal to all federal, state and local government web resources and services.